Current Weather

Brookhaven

Shirley, New York (KHWV)

Report from: Friday, February 23, 2024 1:56 PM EST
Current time: Friday, February 23, 2024 2:35 PM EST

Nearby weather – Weather history – Daily summaries
Weather forecast

Present weatherLight rain
Temperature7.2°C (45.0°F)
Wind chill6.4°C (43.5°F)
Dew point4.4°C (39.9°F)
Winds 3 kts (1.5 m/s, 3.5 mph) North (10°)
Visibility10 mi. (16.1 km)
Clouds Few clouds 1,000 ft. (305 m)
Ceiling: Broken clouds 4,900 ft. (1,494 m)
Overcast 7,000 ft. (2,134 m)
Altimeter29.46 in.Hg (998 mB)
Precipitiation0.01 in. (0 mm)
Relative humidity82 %
Density altitude-277 ft. (-84 m)
Sea-level pressure99.8 kPa (998 mB, 29.46 in.Hg)
Remarks Fully automated report
Automated weather observing station with precipitation discriminator
Flight conditions Visual Meteorological Conditions
Raw dataKHWV 231856Z AUTO 01003KT 10SM -RA FEW010 BKN049 OVC070 07/04 A2946 RMK AO2 SLP975 P0001 T00720044
An error has occurred. This application may no longer respond until reloaded. Reload 🗙